createdAt,value
2024-04-04T00:00:01.620Z,998.7732055908809
2024-04-04T00:15:02.276Z,998.7100471826885
2024-04-04T00:30:02.014Z,998.650779464293
2024-04-04T00:45:01.707Z,998.7341405437863
2024-04-04T01:00:02.379Z,998.9040969234836
2024-04-04T01:15:02.020Z,998.9290165582561
2024-04-04T01:30:01.642Z,998.9018784768324
2024-04-04T01:45:02.268Z,998.9000550311367
2024-04-04T02:00:01.861Z,998.7077616990416
2024-04-04T02:15:02.496Z,998.4407293077446
2024-04-04T02:30:02.182Z,998.4038784567564
2024-04-04T02:45:01.828Z,998.1570863462554
2024-04-04T03:00:02.472Z,998.1578342090252
2024-04-04T03:15:02.115Z,998.2079396737463
2024-04-04T03:30:01.870Z,998.1316983221684
2024-04-04T03:45:02.467Z,997.9339637579396
2024-04-04T04:00:02.141Z,997.8319274472525
2024-04-04T04:15:01.757Z,997.7767150666388
2024-04-04T04:30:01.931Z,997.6693857644761
2024-04-04T04:45:01.615Z,997.5471568965393
2024-04-04T05:00:02.240Z,997.4270748678659
2024-04-04T05:15:01.863Z,997.1300453166565
2024-04-04T05:30:02.562Z,996.8462135409759
2024-04-04T05:45:02.196Z,996.7524048492236
2024-04-04T06:00:01.831Z,996.5506221811924
2024-04-04T06:15:02.461Z,996.3499583764581
2024-04-04T06:30:02.184Z,996.1034534612809
2024-04-04T06:45:01.800Z,995.9301244937465
2024-04-04T07:00:02.483Z,995.7541094027599
2024-04-04T07:15:02.097Z,995.5730394115499
2024-04-04T07:30:01.750Z,995.4703091064279
2024-04-04T07:45:02.413Z,995.2960105245314
2024-04-04T08:00:02.064Z,995.2452520348339
2024-04-04T08:15:01.683Z,995.1785970957746
2024-04-04T08:30:02.398Z,995.0420441031868
2024-04-04T08:45:02.091Z,994.991795623455
2024-04-04T09:00:01.686Z,995.0362655077959
2024-04-04T09:15:02.378Z,994.9102176117527
2024-04-04T09:30:02.046Z,994.9044844779726
2024-04-04T09:45:01.705Z,994.8781305915177
2024-04-04T10:00:02.396Z,994.8775777348357
2024-04-04T10:15:02.051Z,995.0111477901132
2024-04-04T10:30:01.903Z,995.0184172596446
2024-04-04T10:45:02.555Z,995.091759202785
2024-04-04T11:00:02.214Z,995.3923453746006
2024-04-04T11:15:01.818Z,995.215491031353
2024-04-04T11:30:02.510Z,995.3545370805543
2024-04-04T11:45:02.125Z,995.3649750174905
2024-04-04T12:00:01.769Z,995.4180243546051
2024-04-04T12:15:02.425Z,995.6147052489958
2024-04-04T12:30:02.042Z,996.1054200024686
2024-04-04T12:45:01.711Z,996.2111387159105
2024-04-04T13:00:02.396Z,996.2061104423445
2024-04-04T13:15:02.000Z,996.2846443665674
2024-04-04T13:30:01.683Z,996.2364993850308
2024-04-04T13:45:02.332Z,996.1409185857324
2024-04-04T14:00:01.957Z,996.2627530707831
2024-04-04T14:15:01.618Z,996.3065885535017
2024-04-04T14:30:02.298Z,996.4283678651582
2024-04-04T14:45:01.934Z,996.4956243734619
2024-04-04T15:00:01.648Z,996.621102682459
2024-04-04T15:15:02.426Z,996.812691052584
2024-04-04T15:30:02.288Z,997.0354144319957
2024-04-04T15:45:01.898Z,997.2926002828417
2024-04-04T16:00:02.475Z,997.6490904295376
2024-04-04T16:15:02.073Z,997.8528909527492
2024-04-04T16:30:01.728Z,998.1789683108493
2024-04-04T16:45:02.309Z,998.4393318896423
2024-04-04T17:00:01.892Z,998.5671496028377
2024-04-04T17:15:02.517Z,998.8272059275022
2024-04-04T17:30:02.205Z,998.9715249489627
2024-04-04T17:45:01.803Z,999.1036799513512
2024-04-04T18:00:02.540Z,999.4036558698556
2024-04-04T18:15:02.164Z,999.6871103258081
2024-04-04T18:30:01.879Z,999.9778972250708
2024-04-04T18:45:02.526Z,1000.1456933602612
2024-04-04T19:00:02.173Z,1000.663265901549
2024-04-04T19:15:01.757Z,1000.8317008793892
2024-04-04T19:30:02.370Z,1000.9551787343339
2024-04-04T19:45:02.069Z,1001.0345391387222
2024-04-04T20:00:01.711Z,1001.2860158269671
2024-04-04T20:15:02.335Z,1001.3854549976583
2024-04-04T20:30:01.981Z,1001.506874068217
2024-04-04T20:45:01.574Z,1001.5373934525777
2024-04-04T21:00:02.183Z,1001.6558903013521
2024-04-04T21:15:01.869Z,1001.7217277473239
2024-04-04T21:30:02.549Z,1001.950840925396
2024-04-04T21:45:02.219Z,1002.1630976044925
2024-04-04T22:00:01.879Z,1002.2885178154112
2024-04-04T22:15:02.525Z,1002.2064683227995
2024-04-04T22:30:02.141Z,1002.1719082585689
2024-04-04T22:45:01.811Z,1002.1700943952231
2024-04-04T23:00:02.400Z,1002.2039584468916
2024-04-04T23:15:02.004Z,1002.2483994523677
2024-04-04T23:30:01.751Z,1002.2119373694346
2024-04-04T23:45:02.375Z,1002.2717458492228
